Time;durP1;ratioP1;P1;durP2;ratioP2;P2;SDS_P1;SDS_P2;PMS_P1;PMS_P2;Temp;Humidity;BMP_temperature;BMP_pressure;BME280_temperature;BME280_humidity;BME280_pressure;Samples;Min_cycle;Max_cycle;Signal;HPM_P1;HPM_P2
2021/11/30 00:00:11;;;;;;;13.27;8.53;;;3.40;99.90;2.60;99698.00;;;;5015653;27;87917;-64
2021/11/30 00:02:37;;;;;;;15.30;9.37;;;2.80;99.90;2.60;99692.00;;;;4995804;27;93679;-65
2021/11/30 00:05:05;;;;;;;15.00;8.77;;;2.80;99.90;2.60;99694.00;;;;4995486;28;88565;-66
2021/11/30 00:07:32;;;;;;;18.80;9.17;;;2.80;99.90;2.60;99700.00;;;;4995288;27;87747;-67
2021/11/30 00:12:27;;;;;;;18.63;9.43;;;2.80;99.90;2.60;99697.00;;;;4993750;27;106712;-65
2021/11/30 00:14:56;;;;;;;18.37;10.30;;;2.80;99.90;2.60;99701.00;;;;5012809;27;87975;-66
2021/11/30 00:17:23;;;;;;;18.40;10.47;;;3.40;99.90;2.60;99704.00;;;;5012133;27;88035;-65
2021/11/30 00:19:51;;;;;;;12.90;9.50;;;2.80;99.90;2.60;99702.00;;;;5014433;27;88997;-65
2021/11/30 00:22:21;;;;;;;13.20;9.77;;;3.00;99.90;2.60;99695.00;;;;5015410;27;88057;-65
2021/11/30 00:24:49;;;;;;;17.83;10.80;;;3.20;99.90;2.60;99698.00;;;;5015689;27;87685;-66
2021/11/30 00:27:15;;;;;;;15.77;10.67;;;2.80;99.90;2.60;99699.00;;;;5013628;27;88030;-66
2021/11/30 00:29:41;;;;;;;17.03;9.90;;;2.80;99.90;2.60;99705.00;;;;5013849;27;88980;-65
2021/11/30 00:32:07;;;;;;;17.53;11.03;;;2.80;99.90;2.60;99699.00;;;;5013008;27;118930;-66
2021/11/30 00:34:33;;;;;;;16.63;10.83;;;2.80;99.90;2.60;99695.00;;;;5013941;27;87759;-65
2021/11/30 00:37:00;;;;;;;14.73;10.23;;;2.80;99.90;2.60;99700.00;;;;5013204;27;106812;-65
2021/11/30 00:39:26;;;;;;;23.13;11.53;;;2.50;99.90;2.60;99713.00;;;;5013716;27;114084;-65
2021/11/30 00:41:55;;;;;;;18.30;10.53;;;2.80;99.90;2.60;99718.00;;;;5002144;27;117374;-65
2021/11/30 00:44:26;;;;;;;16.43;10.20;;;2.80;99.90;2.60;99720.00;;;;4994951;27;87759;-65
2021/11/30 00:46:54;;;;;;;19.57;11.83;;;2.80;99.90;2.60;99726.00;;;;5002193;27;86970;-65
2021/11/30 00:49:22;;;;;;;20.73;11.97;;;3.40;99.90;2.60;99724.00;;;;5003962;27;88221;-66
2021/11/30 00:51:50;;;;;;;22.20;12.27;;;2.70;99.90;2.60;99734.00;;;;4993805;27;101658;-64
2021/11/30 00:54:18;;;;;;;19.13;13.57;;;2.90;99.90;2.60;99725.00;;;;4994349;27;89084;-64
2021/11/30 00:56:46;;;;;;;17.53;11.20;;;3.50;99.90;2.50;99725.00;;;;5015054;27;87708;-65
2021/11/30 00:59:12;;;;;;;24.10;12.83;;;2.90;99.90;2.60;99724.00;;;;5018507;27;88073;-66
2021/11/30 01:01:39;;;;;;;17.77;11.17;;;3.50;99.90;2.60;99721.00;;;;5015283;27;117519;-66
2021/11/30 01:04:09;;;;;;;19.83;12.00;;;2.80;99.90;2.60;99717.00;;;;5017886;27;87757;-66
2021/11/30 01:06:36;;;;;;;15.50;10.07;;;2.80;99.90;2.60;99717.00;;;;5017571;27;88269;-64
2021/11/30 01:09:05;;;;;;;18.20;11.70;;;2.80;99.90;2.60;99721.00;;;;5011662;27;88880;-65
2021/11/30 01:11:30;;;;;;;17.33;11.10;;;2.80;99.90;2.60;99724.00;;;;4997924;28;87761;-64
2021/11/30 01:13:56;;;;;;;16.30;11.43;;;2.90;99.90;2.60;99720.00;;;;4997455;27;87676;-64
2021/11/30 01:16:22;;;;;;;16.37;10.27;;;2.80;99.90;2.60;99713.00;;;;4997613;27;87770;-65
2021/11/30 01:18:48;;;;;;;18.67;10.70;;;2.80;99.90;2.60;99713.00;;;;4999534;27;117406;-65
2021/11/30 01:21:13;;;;;;;14.47;9.40;;;3.10;99.90;2.60;99709.00;;;;5016387;27;118633;-65
2021/11/30 01:23:39;;;;;;;16.60;10.43;;;2.80;99.90;2.50;99712.00;;;;5017834;27;87538;-65
2021/11/30 01:26:05;;;;;;;19.37;11.00;;;3.20;99.90;2.50;99708.00;;;;5011516;27;87660;-65
2021/11/30 01:28:31;;;;;;;17.87;10.33;;;2.80;99.90;2.50;99706.00;;;;4997020;27;118904;-64
2021/11/30 01:30:58;;;;;;;14.60;8.60;;;2.80;99.90;2.50;99712.00;;;;4997565;27;88166;-63
2021/11/30 01:33:24;;;;;;;13.77;9.60;;;2.80;99.90;2.50;99708.00;;;;4997730;28;87849;-64
2021/11/30 01:35:50;;;;;;;12.33;8.63;;;3.30;99.90;2.50;99703.00;;;;4997582;27;108759;-65
2021/11/30 01:38:16;;;;;;;15.63;8.50;;;3.50;99.90;2.50;99721.00;;;;4997522;28;87918;-64
2021/11/30 01:40:43;;;;;;;15.93;8.93;;;2.90;99.90;2.50;99713.00;;;;4998564;27;87671;-65
2021/11/30 01:43:18;;;;;;;12.93;7.70;;;2.70;99.90;2.40;99720.00;;;;4997518;28;88892;-64
2021/11/30 01:45:56;;;;;;;12.53;7.47;;;3.00;99.90;2.40;99727.00;;;;4997357;27;87914;-63
2021/11/30 01:50:58;;;;;;;14.03;7.50;;;2.70;99.90;2.30;99705.00;;;;5014853;27;87663;-65
2021/11/30 01:53:24;;;;;;;14.07;7.90;;;2.70;99.90;2.30;99707.00;;;;5017371;27;88193;-64
2021/11/30 01:55:52;;;;;;;15.07;8.83;;;2.50;99.90;2.30;99692.00;;;;5016360;27;92099;-66
2021/11/30 01:58:18;;;;;;;13.67;7.60;;;2.50;99.90;2.20;99700.00;;;;5017322;27;87871;-64
2021/11/30 02:00:45;;;;;;;14.37;7.27;;;2.90;99.90;2.20;99692.00;;;;5013584;27;116588;-65
2021/11/30 02:03:11;;;;;;;11.20;7.17;;;2.40;99.90;2.10;99706.00;;;;5015188;27;96642;-66
2021/11/30 02:05:40;;;;;;;9.67;5.90;;;2.50;99.90;2.10;99701.00;;;;5017333;27;87725;-64
2021/11/30 02:08:07;;;;;;;10.50;6.67;;;3.30;99.90;2.00;99692.00;;;;5015668;27;88930;-64
2021/11/30 02:10:35;;;;;;;13.80;7.43;;;2.20;99.90;1.90;99690.00;;;;5016593;27;90065;-63
2021/11/30 02:13:01;;;;;;;12.17;7.57;;;2.20;99.90;1.80;99691.00;;;;5017191;27;87793;-63
2021/11/30 02:15:27;;;;;;;10.30;7.13;;;2.10;99.90;1.80;99690.00;;;;5005799;27;87874;-63
2021/11/30 02:17:57;;;;;;;10.77;7.20;;;1.00;99.90;1.70;99677.00;;;;5016724;27;88931;-63
2021/11/30 02:20:23;;;;;;;13.70;7.97;;;2.10;99.90;1.60;99690.00;;;;5016522;27;87703;-63
2021/11/30 02:22:58;;;;;;;10.13;7.43;;;2.20;99.90;1.50;99673.00;;;;5017388;27;87666;-63
2021/11/30 02:25:24;;;;;;;10.73;7.80;;;2.50;99.90;1.50;99669.00;;;;5000255;27;87023;-64
2021/11/30 02:27:51;;;;;;;14.33;8.40;;;1.70;99.90;1.50;99673.00;;;;4997384;27;95685;-65
2021/11/30 02:30:19;;;;;;;11.40;7.27;;;1.90;99.90;1.40;99662.00;;;;4997182;27;88164;-64
2021/11/30 02:32:45;;;;;;;12.97;7.97;;;1.90;99.90;1.40;99658.00;;;;4996600;27;88582;-64
2021/11/30 02:35:13;;;;;;;10.87;7.63;;;1.70;99.90;1.50;99660.00;;;;4996869;27;87689;-64
2021/11/30 02:37:44;;;;;;;17.20;8.53;;;1.70;99.90;1.40;99657.00;;;;4996857;27;88100;-63
2021/11/30 02:40:11;;;;;;;14.33;8.97;;;1.70;99.90;1.40;99654.00;;;;4996895;28;87820;-65
2021/11/30 02:42:37;;;;;;;11.90;8.67;;;1.70;99.90;1.40;99654.00;;;;5005863;27;89321;-63
2021/11/30 02:45:04;;;;;;;13.20;8.43;;;1.70;99.90;1.40;99654.00;;;;5014764;27;87863;-65
2021/11/30 02:47:30;;;;;;;13.90;8.53;;;1.70;99.90;1.50;99655.00;;;;5016012;27;98958;-64
2021/11/30 02:49:57;;;;;;;13.70;8.57;;;2.60;99.90;1.50;99647.00;;;;5000534;27;117798;-62
2021/11/30 02:52:23;;;;;;;14.47;8.10;;;1.70;99.90;1.50;99641.00;;;;4996470;28;87788;-64
2021/11/30 02:54:54;;;;;;;16.27;9.20;;;2.60;99.90;1.40;99631.00;;;;4995906;28;88118;-65
2021/11/30 02:57:22;;;;;;;10.90;7.60;;;2.30;99.90;1.40;99635.00;;;;4995869;27;89739;-64
2021/11/30 02:59:50;;;;;;;16.00;8.27;;;1.60;99.90;1.30;99626.00;;;;4996149;28;89969;-66
2021/11/30 03:02:23;;;;;;;12.83;8.57;;;2.40;99.90;1.20;99619.00;;;;4996855;27;88174;-64
2021/11/30 03:04:53;;;;;;;11.27;7.43;;;2.30;99.90;1.10;99608.00;;;;5016131;27;87614;-64
2021/11/30 03:07:23;;;;;;;13.17;8.57;;;1.50;99.90;1.10;99621.00;;;;5015434;27;88621;-64
2021/11/30 03:09:49;;;;;;;15.37;8.97;;;1.40;99.90;1.10;99621.00;;;;5016444;27;88017;-64
2021/11/30 03:12:16;;;;;;;14.27;7.90;;;2.20;99.90;1.00;99614.00;;;;5011421;27;87803;-63
2021/11/30 03:14:42;;;;;;;10.63;8.27;;;1.40;99.90;1.00;99620.00;;;;4996757;28;86971;-65
2021/11/30 03:17:08;;;;;;;13.77;8.33;;;1.20;99.90;1.00;99614.00;;;;4996384;27;89172;-63
2021/11/30 03:19:34;;;;;;;10.20;7.73;;;1.20;99.90;0.90;99598.00;;;;4992726;27;117713;-63
2021/11/30 03:22:01;;;;;;;12.07;6.40;;;1.30;99.90;0.90;99597.00;;;;4995153;28;109466;-63
2021/11/30 03:24:28;;;;;;;15.23;7.57;;;1.20;99.90;0.90;99591.00;;;;4998367;27;87909;-62
2021/11/30 03:26:54;;;;;;;10.40;7.23;;;1.10;99.90;0.80;99573.00;;;;4999455;27;89256;-63
2021/11/30 03:29:21;;;;;;;12.97;8.57;;;1.10;99.90;0.80;99586.00;;;;4995817;28;90794;-63
2021/11/30 03:31:50;;;;;;;11.67;7.70;;;1.90;99.90;0.80;99570.00;;;;4995480;27;87865;-63
2021/11/30 03:34:21;;;;;;;12.17;7.50;;;1.50;99.90;0.80;99561.00;;;;4996277;28;87847;-60
2021/11/30 03:36:51;;;;;;;14.50;8.60;;;1.00;99.90;0.80;99557.00;;;;4995648;27;88387;-64
2021/11/30 03:39:21;;;;;;;15.57;8.90;;;1.90;99.90;0.80;99552.00;;;;4996280;28;88734;-63
2021/11/30 03:41:49;;;;;;;20.47;9.00;;;1.40;99.90;0.80;99544.00;;;;5003788;27;88386;-65
2021/11/30 03:44:16;;;;;;;11.23;7.23;;;1.10;99.90;0.80;99543.00;;;;4998252;27;87709;-62
2021/11/30 03:46:43;;;;;;;11.23;7.43;;;1.00;99.90;0.80;99549.00;;;;4995437;27;88751;-65
2021/11/30 03:49:11;;;;;;;11.07;6.57;;;1.00;99.90;0.80;99539.00;;;;4996226;27;88879;-64
2021/11/30 03:51:37;;;;;;;11.47;7.20;;;1.10;99.90;0.80;99538.00;;;;5008389;27;87861;-64
2021/11/30 03:54:05;;;;;;;13.57;7.90;;;1.10;99.90;0.80;99531.00;;;;5016667;27;87714;-63
2021/11/30 03:56:32;;;;;;;9.13;6.63;;;1.90;99.90;0.90;99511.00;;;;5015535;27;88268;-65
2021/11/30 03:58:57;;;;;;;13.57;7.70;;;1.10;99.90;0.90;99504.00;;;;5015534;27;102878;-64
2021/11/30 04:01:24;;;;;;;11.40;6.93;;;1.10;99.90;0.90;99510.00;;;;5014022;27;110920;-65
2021/11/30 04:03:50;;;;;;;11.73;6.17;;;1.20;99.90;0.90;99502.00;;;;5015798;27;99280;-64
2021/11/30 04:06:15;;;;;;;7.77;5.90;;;1.20;99.90;0.90;99514.00;;;;5007037;27;88470;-65
2021/11/30 04:08:41;;;;;;;13.40;6.23;;;1.10;99.90;1.00;99510.00;;;;4994329;28;118537;-65
2021/11/30 04:11:09;;;;;;;10.30;6.73;;;1.80;99.90;1.00;99511.00;;;;4995298;27;110880;-65
2021/11/30 04:13:36;;;;;;;9.27;5.33;;;1.50;99.90;1.00;99497.00;;;;4995389;27;89997;-65
2021/11/30 04:16:02;;;;;;;8.70;4.90;;;1.70;99.90;1.10;99499.00;;;;4994998;27;99566;-66
2021/11/30 04:18:29;;;;;;;10.43;5.63;;;1.30;99.90;1.10;99484.00;;;;5003608;27;98091;-64
2021/11/30 04:20:54;;;;;;;9.33;5.40;;;1.40;99.90;1.10;99480.00;;;;4995522;27;87692;-65
2021/11/30 04:23:20;;;;;;;9.63;5.93;;;1.30;99.90;1.10;99471.00;;;;4994469;28;110133;-65
2021/11/30 04:25:46;;;;;;;9.13;5.53;;;2.50;99.90;1.10;99466.00;;;;4994166;27;117578;-64
2021/11/30 04:28:12;;;;;;;6.27;3.87;;;1.40;99.90;1.10;99457.00;;;;4994073;27;118491;-66
2021/11/30 04:30:37;;;;;;;7.07;4.33;;;1.40;99.90;1.10;99455.00;;;;4998618;27;88017;-67
2021/11/30 04:33:03;;;;;;;6.37;4.33;;;1.40;99.90;1.10;99447.00;;;;4998865;27;87725;-65
2021/11/30 04:35:29;;;;;;;4.53;3.90;;;2.10;99.90;1.10;99453.00;;;;4997310;27;102849;-65
2021/11/30 04:37:55;;;;;;;7.77;4.70;;;1.30;99.90;1.10;99440.00;;;;4996527;27;89682;-64
2021/11/30 04:40:22;;;;;;;8.17;4.20;;;2.00;99.90;1.20;99438.00;;;;4997809;27;92286;-64
2021/11/30 04:42:49;;;;;;;6.30;3.70;;;1.40;99.90;1.20;99436.00;;;;4999030;28;87965;-64
2021/11/30 04:45:28;;;;;;;5.23;3.57;;;1.70;99.90;1.20;99425.00;;;;4998002;27;88869;-65
2021/11/30 04:47:56;;;;;;;6.67;3.87;;;1.40;99.90;1.30;99411.00;;;;5017407;27;87872;-65
2021/11/30 04:50:25;;;;;;;5.13;3.73;;;1.50;99.90;1.30;99408.00;;;;5008512;27;87749;-64
2021/11/30 04:52:52;;;;;;;8.63;4.17;;;1.80;99.90;1.30;99392.00;;;;4999024;27;87200;-64
2021/11/30 04:55:29;;;;;;;5.83;3.37;;;2.30;99.90;1.30;99408.00;;;;4998037;27;88840;-64
2021/11/30 04:58:01;;;;;;;3.50;3.10;;;1.50;99.90;1.40;99399.00;;;;4998142;27;88716;-64
2021/11/30 05:00:29;;;;;;;5.43;3.40;;;1.70;99.90;1.40;99390.00;;;;4997581;27;88656;-65
2021/11/30 05:02:55;;;;;;;5.00;4.37;;;2.40;99.90;1.50;99381.00;;;;4998501;28;87803;-66
2021/11/30 05:05:21;;;;;;;5.30;3.40;;;1.70;99.90;1.50;99385.00;;;;4997826;27;96828;-65
2021/11/30 05:07:48;;;;;;;3.73;2.90;;;1.70;99.90;1.60;99385.00;;;;4997413;28;116359;-66
2021/11/30 05:10:14;;;;;;;5.00;3.50;;;1.80;99.90;1.60;99373.00;;;;4997350;28;87879;-65
2021/11/30 05:12:41;;;;;;;4.50;3.40;;;1.80;99.90;1.70;99373.00;;;;4998780;27;87723;-65
2021/11/30 05:15:09;;;;;;;4.23;2.30;;;2.40;99.90;1.70;99362.00;;;;5011960;27;88766;-67
2021/11/30 05:17:34;;;;;;;4.10;3.17;;;2.00;99.90;1.70;99365.00;;;;5018770;27;87883;-64
2021/11/30 05:20:03;;;;;;;4.83;3.53;;;1.90;99.90;1.70;99355.00;;;;5017818;27;87785;-65
2021/11/30 05:22:29;;;;;;;5.27;3.67;;;2.00;99.90;1.70;99368.00;;;;5018031;27;87616;-64
2021/11/30 05:24:55;;;;;;;4.57;3.20;;;2.00;99.90;1.70;99364.00;;;;5017182;27;119315;-64
2021/11/30 05:27:21;;;;;;;4.60;3.03;;;2.00;99.90;1.70;99353.00;;;;5016799;27;89691;-63
2021/11/30 05:29:46;;;;;;;4.57;3.33;;;2.20;99.90;1.70;99354.00;;;;5001068;27;87870;-64
2021/11/30 05:32:12;;;;;;;6.33;3.43;;;2.00;99.90;1.70;99356.00;;;;5013661;27;87820;-65
2021/11/30 05:34:38;;;;;;;6.07;3.70;;;1.90;99.90;1.70;99355.00;;;;5017887;27;87424;-65
2021/11/30 05:37:04;;;;;;;6.07;3.70;;;2.70;99.90;1.70;99349.00;;;;5015345;27;117783;-64
2021/11/30 05:39:30;;;;;;;4.63;3.87;;;1.90;99.90;1.60;99343.00;;;;5020091;27;87921;-65
2021/11/30 05:41:56;;;;;;;5.73;3.83;;;2.00;99.90;1.60;99334.00;;;;5013350;27;87144;-64
2021/11/30 05:44:21;;;;;;;6.23;3.70;;;1.90;99.90;1.60;99347.00;;;;4997048;28;118768;-65
2021/11/30 05:46:49;;;;;;;8.90;3.73;;;1.90;99.90;1.50;99332.00;;;;4996308;27;117834;-65
2021/11/30 05:49:16;;;;;;;6.97;3.63;;;1.90;99.90;1.50;99327.00;;;;4997682;27;88694;-65
2021/11/30 05:51:42;;;;;;;6.93;4.57;;;1.80;99.90;1.50;99324.00;;;;4997607;28;87778;-64
2021/11/30 05:54:09;;;;;;;7.83;5.07;;;1.80;99.90;1.60;99318.00;;;;4997637;27;88908;-64
2021/11/30 05:56:35;;;;;;;6.70;4.33;;;1.80;99.90;1.50;99308.00;;;;4996570;27;117874;-64
2021/11/30 05:59:01;;;;;;;8.17;4.60;;;1.80;99.90;1.50;99296.00;;;;4996505;27;104555;-64
2021/11/30 06:01:31;;;;;;;8.03;5.23;;;2.10;99.90;1.50;99322.00;;;;4997049;27;87816;-64
2021/11/30 06:03:58;;;;;;;7.97;6.00;;;1.90;99.90;1.50;99304.00;;;;4996360;28;88055;-65
2021/11/30 06:06:26;;;;;;;8.87;5.27;;;2.20;99.90;1.50;99300.00;;;;4997298;27;88461;-63
2021/11/30 06:08:52;;;;;;;7.70;4.67;;;2.20;99.90;1.50;99290.00;;;;4997063;27;89206;-64
2021/11/30 06:11:18;;;;;;;8.90;5.13;;;2.10;99.90;1.50;99306.00;;;;5015211;27;108773;-65
2021/11/30 06:13:44;;;;;;;8.23;5.13;;;1.70;99.90;1.40;99290.00;;;;5015210;27;117250;-64
2021/11/30 06:16:09;;;;;;;9.53;4.80;;;1.70;99.90;1.40;99286.00;;;;5016500;27;89246;-65
2021/11/30 06:18:35;;;;;;;7.53;4.67;;;1.70;99.90;1.40;99274.00;;;;5010907;27;110951;-65
2021/11/30 06:21:01;;;;;;;8.57;5.73;;;1.70;99.90;1.40;99278.00;;;;4997420;27;108864;-68
2021/11/30 06:23:27;;;;;;;11.47;6.27;;;2.50;99.90;1.40;99265.00;;;;4996382;27;88697;-65
2021/11/30 06:25:53;;;;;;;9.10;5.50;;;1.60;99.90;1.40;99250.00;;;;4995897;28;110287;-65
2021/11/30 06:28:18;;;;;;;8.03;5.63;;;1.70;99.90;1.40;99250.00;;;;5010392;27;99259;-66
2021/11/30 06:30:45;;;;;;;10.60;5.77;;;1.60;99.90;1.50;99230.00;;;;5012777;27;108703;-67
2021/11/30 06:33:11;;;;;;;10.53;5.50;;;1.80;99.90;1.50;99228.00;;;;4996371;28;88029;-66
2021/11/30 06:35:37;;;;;;;6.10;4.97;;;2.30;99.90;1.50;99223.00;;;;4995984;27;87891;-67
2021/11/30 06:38:06;;;;;;;10.07;5.70;;;2.60;99.90;1.50;99201.00;;;;4996536;28;88829;-67
2021/11/30 06:40:32;;;;;;;8.87;5.53;;;1.70;99.90;1.50;99210.00;;;;5004729;27;96364;-67
2021/11/30 06:42:57;;;;;;;9.63;5.97;;;1.70;99.90;1.50;99207.00;;;;5010689;27;93646;-67
2021/11/30 06:45:23;;;;;;;9.60;5.97;;;2.20;99.90;1.60;99212.00;;;;5008399;27;117868;-67
2021/11/30 06:47:49;;;;;;;9.40;5.17;;;1.80;99.90;1.60;99193.00;;;;4996497;27;87780;-67
2021/11/30 06:50:14;;;;;;;9.33;5.13;;;1.80;99.90;1.60;99199.00;;;;4993891;27;87684;-66
2021/11/30 06:52:40;;;;;;;9.60;6.53;;;1.90;99.90;1.60;99175.00;;;;4995252;27;106806;-67
2021/11/30 06:55:10;;;;;;;9.97;6.07;;;2.60;99.90;1.70;99169.00;;;;4996299;27;88670;-67
2021/11/30 06:57:36;;;;;;;8.43;4.20;;;2.70;99.90;1.70;99164.00;;;;4994504;27;110780;-66
2021/11/30 07:00:08;;;;;;;9.03;5.23;;;1.80;99.90;1.80;99163.00;;;;4991951;27;88101;-67
2021/11/30 07:02:35;;;;;;;11.77;5.77;;;2.00;99.90;1.80;99156.00;;;;4993781;27;89693;-67
2021/11/30 07:08:13;;;;;;;8.27;5.23;;;2.20;99.90;1.80;99151.00;;;;4991141;27;87972;-66
2021/11/30 07:15:43;;;;;;;8.03;4.57;;;2.10;99.90;1.90;99112.00;;;;4991522;27;87825;-66
2021/11/30 07:18:12;;;;;;;7.80;4.60;;;2.50;99.90;1.90;99132.00;;;;4992873;27;87517;-67
2021/11/30 07:20:39;;;;;;;10.43;5.67;;;3.00;99.90;2.00;99117.00;;;;4995521;27;87149;-66
2021/11/30 07:23:05;;;;;;;7.80;4.23;;;2.20;99.90;2.00;99116.00;;;;4992453;27;101082;-66
2021/11/30 07:25:31;;;;;;;8.83;4.73;;;2.50;99.90;2.00;99103.00;;;;4993744;27;88253;-66
2021/11/30 07:27:57;;;;;;;6.00;3.47;;;2.30;99.90;2.00;99110.00;;;;4992087;27;88668;-66
2021/11/30 07:30:23;;;;;;;6.93;4.33;;;3.00;99.90;2.00;99095.00;;;;5001062;27;87732;-65
2021/11/30 07:32:49;;;;;;;5.27;3.97;;;2.30;99.90;2.00;99091.00;;;;4990535;27;88016;-66
2021/11/30 07:35:18;;;;;;;7.27;3.63;;;2.20;99.90;2.00;99080.00;;;;4994921;27;87815;-67
2021/11/30 07:37:43;;;;;;;4.50;3.10;;;2.30;99.90;2.00;99091.00;;;;4993058;27;87776;-66
2021/11/30 07:40:10;;;;;;;6.13;3.17;;;2.20;99.90;2.00;99072.00;;;;4992197;27;109068;-67
2021/11/30 07:42:36;;;;;;;4.33;2.57;;;2.20;99.90;2.00;99065.00;;;;4991832;27;99447;-67
2021/11/30 07:45:03;;;;;;;4.20;3.53;;;2.90;99.90;2.00;99068.00;;;;4994407;27;88039;-67
2021/11/30 07:47:29;;;;;;;4.57;3.43;;;2.20;99.90;1.90;99062.00;;;;4991507;27;88054;-65
2021/11/30 07:49:54;;;;;;;3.67;2.70;;;3.10;99.90;1.90;99044.00;;;;4992856;27;88125;-67
2021/11/30 07:52:20;;;;;;;3.93;2.50;;;2.50;99.90;2.00;99059.00;;;;4990403;27;117919;-65
2021/11/30 07:54:46;;;;;;;5.10;3.20;;;2.60;99.90;1.90;99035.00;;;;4991509;27;118393;-67
2021/11/30 07:57:13;;;;;;;4.80;2.87;;;2.40;99.90;1.90;99022.00;;;;4993896;27;87991;-66
2021/11/30 07:59:39;;;;;;;5.20;2.87;;;2.90;99.90;1.90;99018.00;;;;4993355;27;87713;-67
2021/11/30 08:02:06;;;;;;;4.63;2.67;;;3.10;99.90;1.90;99012.00;;;;4992187;27;88216;-67
2021/11/30 08:04:32;;;;;;;3.23;2.57;;;2.00;99.90;1.80;98989.00;;;;4992392;27;91863;-70
2021/11/30 08:06:58;;;;;;;6.23;2.57;;;2.40;99.90;1.80;99004.00;;;;4995906;27;88081;-68
2021/11/30 08:09:26;;;;;;;4.00;2.63;;;2.10;99.90;1.90;98998.00;;;;4995377;27;108263;-67
2021/11/30 08:11:52;;;;;;;4.13;2.77;;;2.10;99.90;1.80;98977.00;;;;4997966;27;88900;-67
2021/11/30 08:14:19;;;;;;;2.90;2.47;;;2.10;99.90;1.80;98984.00;;;;5000281;27;88076;-67
2021/11/30 08:16:45;;;;;;;3.60;2.57;;;2.80;99.90;1.90;98979.00;;;;5001007;27;88758;-68
2021/11/30 08:19:11;;;;;;;4.53;1.70;;;2.10;99.90;1.90;98978.00;;;;4994622;27;110216;-68
2021/11/30 08:21:37;;;;;;;3.80;2.27;;;2.40;99.90;1.90;98957.00;;;;5000510;27;98539;-68
2021/11/30 08:24:03;;;;;;;4.77;3.37;;;2.00;99.90;1.90;98973.00;;;;4995262;27;88909;-68
2021/11/30 08:26:29;;;;;;;4.47;2.37;;;2.00;99.90;2.00;98954.00;;;;4997893;27;88223;-68
2021/11/30 08:28:55;;;;;;;3.40;2.50;;;2.80;99.90;2.00;98957.00;;;;4994570;27;109827;-68
2021/11/30 08:31:20;;;;;;;4.33;2.43;;;2.50;99.90;2.00;98939.00;;;;4995448;27;89274;-68
2021/11/30 08:33:46;;;;;;;3.03;2.47;;;3.10;99.90;2.00;98928.00;;;;4994190;27;103476;-69
2021/11/30 08:36:12;;;;;;;3.10;2.07;;;2.20;99.90;2.00;98912.00;;;;4997481;27;88130;-69
2021/11/30 08:38:38;;;;;;;1.83;1.43;;;2.40;99.90;2.00;98918.00;;;;4994704;27;98481;-70
2021/11/30 08:41:04;;;;;;;3.37;2.23;;;2.20;99.90;2.00;98915.00;;;;4994653;27;89761;-69
2021/11/30 08:43:30;;;;;;;1.90;1.50;;;2.30;99.90;2.00;98901.00;;;;4997671;27;89365;-69
2021/11/30 08:45:56;;;;;;;1.73;1.40;;;2.20;99.90;2.00;98899.00;;;;4994873;27;87753;-69
2021/11/30 08:48:24;;;;;;;3.07;1.80;;;2.20;99.90;2.00;98896.00;;;;4993225;27;88971;-69
2021/11/30 08:50:52;;;;;;;1.87;1.43;;;2.30;99.90;2.00;98896.00;;;;4998874;27;87895;-68
2021/11/30 08:53:18;;;;;;;2.43;1.83;;;2.30;99.90;2.00;98893.00;;;;4997861;27;89385;-68
2021/11/30 08:55:45;;;;;;;2.00;1.43;;;2.30;99.90;2.10;98881.00;;;;4995028;27;88012;-69
2021/11/30 08:58:11;;;;;;;2.50;1.33;;;3.10;99.90;2.10;98877.00;;;;4994892;27;86990;-68
2021/11/30 09:00:37;;;;;;;1.93;1.43;;;2.30;99.90;2.10;98875.00;;;;4994688;27;110497;-69
2021/11/30 09:03:03;;;;;;;2.33;1.70;;;2.60;99.90;2.00;98874.00;;;;4994827;27;87850;-69
2021/11/30 09:05:29;;;;;;;2.47;1.70;;;2.80;99.90;2.10;98878.00;;;;4992946;27;88638;-68
2021/11/30 09:07:56;;;;;;;1.20;1.00;;;2.30;99.90;2.10;98871.00;;;;4993912;27;94297;-68
2021/11/30 09:10:22;;;;;;;2.27;1.47;;;2.60;99.90;2.10;98848.00;;;;4995511;27;89201;-69
2021/11/30 09:12:49;;;;;;;1.10;1.00;;;2.90;99.90;2.10;98861.00;;;;4992370;27;88632;-67
2021/11/30 09:15:16;;;;;;;1.83;1.43;;;2.60;99.90;2.20;98849.00;;;;4995722;27;88231;-70
2021/11/30 09:17:44;;;;;;;1.37;1.13;;;2.30;99.90;2.20;98838.00;;;;4994229;27;88354;-68
2021/11/30 09:20:11;;;;;;;1.10;0.77;;;2.40;99.90;2.20;98846.00;;;;5002929;27;88642;-68
2021/11/30 09:22:37;;;;;;;0.90;0.90;;;2.40;99.90;2.20;98830.00;;;;4994337;27;98865;-68
2021/11/30 09:25:06;;;;;;;1.63;1.20;;;2.40;99.90;2.10;98829.00;;;;4994803;27;90507;-68
2021/11/30 09:27:32;;;;;;;0.87;0.70;;;2.50;99.90;2.20;98828.00;;;;4994923;27;88185;-68
2021/11/30 09:30:02;;;;;;;0.70;0.60;;;2.40;99.90;2.20;98834.00;;;;4994360;27;89939;-68
2021/11/30 09:32:36;;;;;;;0.77;0.70;;;2.70;99.90;2.10;98807.00;;;;4991386;27;91669;-68
2021/11/30 09:35:02;;;;;;;2.27;1.23;;;3.00;99.90;2.10;98799.00;;;;4998621;27;87990;-67
2021/11/30 09:37:29;;;;;;;0.43;0.43;;;2.40;99.90;2.10;98808.00;;;;4995586;27;87712;-67
2021/11/30 09:39:58;;;;;;;0.87;0.73;;;3.30;99.90;2.10;98794.00;;;;5009768;27;88256;-69
2021/11/30 09:42:24;;;;;;;2.60;0.90;;;2.40;99.90;2.10;98763.00;;;;4992957;27;87949;-68
2021/11/30 09:44:49;;;;;;;5.80;1.50;;;2.40;99.90;2.10;98779.00;;;;4998120;27;87834;-68
2021/11/30 09:47:16;;;;;;;1.60;1.50;;;2.40;99.90;2.10;98768.00;;;;4997342;27;102670;-68
2021/11/30 09:49:42;;;;;;;1.40;1.30;;;3.00;99.90;2.20;98767.00;;;;4993604;27;88788;-67
2021/11/30 09:52:08;;;;;;;2.93;1.97;;;2.80;99.90;2.20;98758.00;;;;4998282;27;89072;-67
2021/11/30 09:54:34;;;;;;;1.87;1.33;;;2.50;99.90;2.30;98766.00;;;;4997492;27;97847;-68
2021/11/30 09:57:02;;;;;;;2.37;1.40;;;2.50;99.90;2.20;98748.00;;;;4993253;27;107727;-68
2021/11/30 09:59:29;;;;;;;1.53;1.20;;;2.50;99.90;2.30;98759.00;;;;4994298;27;88961;-68
2021/11/30 10:01:54;;;;;;;1.37;1.07;;;2.60;99.90;2.30;98730.00;;;;4995820;27;97349;-68
2021/11/30 10:04:21;;;;;;;1.47;0.97;;;2.50;99.90;2.30;98731.00;;;;4994090;27;87872;-69
2021/11/30 10:06:46;;;;;;;1.33;0.97;;;3.10;99.90;2.30;98747.00;;;;4998652;27;93746;-70
2021/11/30 10:09:21;;;;;;;0.83;0.70;;;2.50;99.90;2.40;98726.00;;;;4992004;27;100628;-68
2021/11/30 10:12:07;;;;;;;1.13;0.97;;;2.70;99.90;2.40;98725.00;;;;4993984;27;87919;-70
2021/11/30 10:14:37;;;;;;;0.87;0.83;;;2.60;99.90;2.40;98710.00;;;;4976286;27;87904;-68
2021/11/30 10:17:28;;;;;;;1.43;0.90;;;2.70;99.90;2.40;98734.00;;;;4993585;27;94510;-69
2021/11/30 10:20:05;;;;;;;0.87;0.67;;;2.70;99.90;2.40;98719.00;;;;4991958;27;89212;-69
2021/11/30 10:22:50;;;;;;;1.00;0.90;;;2.80;99.90;2.50;98724.00;;;;5005653;27;90394;-68
2021/11/30 10:25:35;;;;;;;1.57;0.97;;;2.70;99.90;2.50;98691.00;;;;5000246;27;87890;-69
2021/11/30 10:28:12;;;;;;;1.47;1.07;;;2.80;99.90;2.50;98719.00;;;;4992116;27;87813;-70
2021/11/30 10:30:42;;;;;;;1.37;0.77;;;2.70;99.90;2.50;98681.00;;;;4993322;27;89100;-69
2021/11/30 10:33:16;;;;;;;0.90;0.70;;;3.60;99.90;2.60;98694.00;;;;4991218;27;87834;-67
2021/11/30 10:35:43;;;;;;;1.07;0.70;;;3.10;99.90;2.60;98701.00;;;;4996651;27;87825;-67
2021/11/30 10:38:09;;;;;;;0.40;0.40;;;2.90;99.90;2.70;98672.00;;;;5002819;27;88269;-68
2021/11/30 10:40:39;;;;;;;0.60;0.60;;;3.00;99.90;2.70;98681.00;;;;4994094;27;105522;-67
2021/11/30 10:43:10;;;;;;;0.73;0.73;;;2.90;99.90;2.70;98698.00;;;;4991394;27;87822;-66
2021/11/30 10:45:43;;;;;;;1.00;0.53;;;3.00;99.90;2.80;98668.00;;;;4994242;27;88648;-67
2021/11/30 10:48:16;;;;;;;0.63;0.40;;;3.00;99.90;2.80;98670.00;;;;4993462;27;87876;-66
2021/11/30 10:50:50;;;;;;;0.20;0.20;;;3.00;99.90;2.90;98669.00;;;;4991771;27;87786;-66
2021/11/30 10:53:26;;;;;;;0.40;0.40;;;3.10;99.90;2.90;98664.00;;;;4991389;27;88026;-66
2021/11/30 10:55:59;;;;;;;0.40;0.30;;;3.10;99.90;2.90;98661.00;;;;4997798;27;87648;-66
2021/11/30 10:58:37;;;;;;;0.30;0.30;;;3.10;99.90;2.90;98677.00;;;;4993056;27;88176;-66
2021/11/30 11:01:20;;;;;;;1.97;0.50;;;3.60;99.90;3.00;98673.00;;;;4992781;27;88399;-65
2021/11/30 11:04:08;;;;;;;0.20;0.20;;;3.20;99.90;3.00;98660.00;;;;4993306;27;96438;-65
2021/11/30 11:06:36;;;;;;;0.50;0.40;;;3.30;99.90;3.10;98650.00;;;;4991717;27;87933;-66
2021/11/30 11:09:11;;;;;;;0.33;0.33;;;3.20;99.90;3.10;98637.00;;;;4992767;27;89430;-66
2021/11/30 11:11:44;;;;;;;1.00;0.70;;;3.40;99.90;3.10;98636.00;;;;4992929;27;90198;-66
2021/11/30 11:14:21;;;;;;;0.73;0.70;;;3.50;99.90;3.20;98665.00;;;;4998684;27;88869;-67
2021/11/30 11:16:53;;;;;;;0.40;0.40;;;3.50;99.90;3.20;98652.00;;;;4995283;27;87941;-66
2021/11/30 11:19:40;;;;;;;0.70;0.40;;;3.30;99.90;3.30;98645.00;;;;4991745;27;88922;-67